Time;durP1;ratioP1;P1;durP2;ratioP2;P2;SDS_P1;SDS_P2;PMS_P1;PMS_P2;Temp;Humidity;BMP_temperature;BMP_pressure;BME280_temperature;BME280_humidity;BME280_pressure;Samples;Min_cycle;Max_cycle;Signal;HPM_P1;HPM_P2
2021/07/06 00:02:12;;;;;;;7.95;5.20;;;13.70;99.90;;;;;;4969905;28;20055;-87
2021/07/06 00:05:00;;;;;;;7.82;4.88;;;13.70;99.90;;;;;;4948071;28;20126;-87
2021/07/06 00:07:51;;;;;;;8.98;5.03;;;13.70;99.90;;;;;;4981796;28;20118;-89
2021/07/06 00:10:39;;;;;;;5.30;4.70;;;13.70;99.90;;;;;;4975117;28;20090;-87
2021/07/06 00:13:26;;;;;;;11.80;5.40;;;13.60;99.90;;;;;;4970135;28;20141;-87
2021/07/06 00:16:13;;;;;;;11.88;5.40;;;13.60;99.90;;;;;;4971223;28;20479;-87
2021/07/06 00:19:04;;;;;;;9.45;5.43;;;13.60;99.90;;;;;;4966359;28;20047;-88
2021/07/06 00:21:54;;;;;;;9.00;5.43;;;13.60;99.90;;;;;;4971311;28;20077;-88
2021/07/06 00:24:43;;;;;;;7.65;5.43;;;13.60;99.90;;;;;;4959999;28;20047;-88
2021/07/06 00:27:31;;;;;;;12.23;5.60;;;13.60;99.90;;;;;;4984412;28;20495;-88
2021/07/06 00:30:18;;;;;;;9.38;6.47;;;13.60;99.90;;;;;;4956843;28;20067;-87
2021/07/06 00:33:05;;;;;;;10.00;5.68;;;13.50;99.90;;;;;;4984840;28;20539;-88
2021/07/06 00:35:52;;;;;;;7.15;5.82;;;13.40;99.90;;;;;;4968920;28;20050;-87
2021/07/06 00:38:39;;;;;;;10.65;5.95;;;13.40;99.90;;;;;;4945741;28;20118;-88
2021/07/06 00:41:27;;;;;;;7.47;5.38;;;13.40;99.90;;;;;;4977188;28;20468;-87
2021/07/06 00:44:17;;;;;;;7.93;5.50;;;13.30;99.90;;;;;;4970257;28;20066;-87
2021/07/06 00:47:05;;;;;;;8.30;5.80;;;13.30;99.90;;;;;;4979237;28;20054;-88
2021/07/06 00:49:54;;;;;;;7.22;5.85;;;13.20;99.90;;;;;;4969929;28;20050;-88
2021/07/06 00:52:41;;;;;;;10.88;6.13;;;13.20;99.90;;;;;;4971875;28;20070;-87
2021/07/06 00:55:30;;;;;;;14.18;6.28;;;13.20;99.90;;;;;;4959170;28;20097;-88
2021/07/06 00:58:18;;;;;;;8.57;6.00;;;13.30;99.90;;;;;;4972089;28;20078;-86
2021/07/06 01:01:05;;;;;;;7.43;6.18;;;13.30;99.90;;;;;;4972637;28;20039;-86
2021/07/06 01:03:53;;;;;;;7.30;6.07;;;13.20;99.90;;;;;;4968004;28;20091;-87
2021/07/06 01:06:40;;;;;;;12.13;6.32;;;13.20;99.90;;;;;;4969846;28;20086;-89
2021/07/06 01:09:31;;;;;;;10.90;6.40;;;13.20;99.90;;;;;;4971494;28;20496;-87
2021/07/06 01:12:20;;;;;;;10.85;6.93;;;13.30;99.90;;;;;;4967487;28;20047;-87
2021/07/06 01:15:12;;;;;;;9.35;6.88;;;13.30;99.90;;;;;;4970134;28;20602;-88
2021/07/06 01:18:03;;;;;;;8.45;6.82;;;13.30;99.90;;;;;;4982317;28;20333;-88
2021/07/06 01:20:55;;;;;;;10.98;6.68;;;13.30;99.90;;;;;;4968733;28;20418;-88
2021/07/06 01:23:42;;;;;;;10.27;7.18;;;13.30;99.90;;;;;;4964701;28;20137;-87
2021/07/06 01:26:32;;;;;;;9.70;6.97;;;13.30;99.90;;;;;;4950006;28;20488;-88
2021/07/06 01:29:20;;;;;;;11.55;7.13;;;13.30;99.90;;;;;;4971380;28;20440;-88
2021/07/06 01:32:08;;;;;;;13.25;6.43;;;13.30;99.90;;;;;;4968996;28;20162;-87
2021/07/06 01:34:56;;;;;;;8.57;6.47;;;13.30;99.90;;;;;;4969041;28;20506;-87
2021/07/06 01:37:46;;;;;;;9.50;6.00;;;13.20;99.90;;;;;;4960514;28;20130;-87
2021/07/06 01:40:35;;;;;;;10.40;7.85;;;13.20;99.90;;;;;;4964222;28;20050;-86
2021/07/06 01:43:22;;;;;;;13.57;7.55;;;13.20;99.90;;;;;;4955174;28;20177;-87
2021/07/06 01:46:15;;;;;;;9.68;7.80;;;13.20;99.90;;;;;;4964221;28;20385;-87
2021/07/06 01:49:03;;;;;;;13.45;7.70;;;13.20;99.90;;;;;;4968314;28;20114;-87
2021/07/06 01:51:53;;;;;;;13.73;7.15;;;13.20;99.90;;;;;;4957842;28;20050;-87
2021/07/06 01:54:43;;;;;;;10.35;7.38;;;13.20;99.90;;;;;;4968844;28;20042;-88
2021/07/06 01:57:31;;;;;;;10.65;7.20;;;13.20;99.90;;;;;;4970728;28;20353;-87
2021/07/06 02:00:20;;;;;;;10.68;6.97;;;13.30;99.90;;;;;;4974234;28;20186;-87
2021/07/06 02:03:10;;;;;;;11.60;6.85;;;13.30;99.90;;;;;;4967997;28;20122;-88
2021/07/06 02:05:59;;;;;;;8.80;6.90;;;13.20;99.90;;;;;;4969950;28;20185;-86
2021/07/06 02:08:47;;;;;;;13.60;7.93;;;13.20;99.90;;;;;;4977306;28;20447;-87
2021/07/06 02:11:35;;;;;;;8.43;6.93;;;13.10;99.90;;;;;;4974736;28;20125;-87
2021/07/06 02:14:23;;;;;;;9.15;6.65;;;13.10;99.90;;;;;;4975446;28;20194;-87
2021/07/06 02:17:12;;;;;;;10.88;7.03;;;13.10;99.90;;;;;;4971570;28;20118;-87
2021/07/06 02:20:00;;;;;;;11.80;7.32;;;13.10;99.90;;;;;;4955821;28;20050;-87
2021/07/06 02:22:49;;;;;;;12.00;6.82;;;13.10;99.90;;;;;;4963414;28;20126;-87
2021/07/06 02:25:36;;;;;;;12.45;7.07;;;13.10;99.90;;;;;;4970746;28;20568;-86
2021/07/06 02:28:26;;;;;;;11.10;7.68;;;13.10;99.90;;;;;;4967402;28;20327;-87
2021/07/06 02:31:14;;;;;;;12.02;8.15;;;13.20;99.90;;;;;;4968655;28;20122;-87
2021/07/06 02:34:02;;;;;;;9.65;8.00;;;13.20;99.90;;;;;;4964821;28;20044;-87
2021/07/06 02:36:52;;;;;;;11.38;7.43;;;13.10;99.90;;;;;;4968929;28;20051;-88
2021/07/06 02:39:39;;;;;;;12.52;7.90;;;13.10;99.90;;;;;;4970072;28;20125;-87
2021/07/06 02:42:29;;;;;;;8.90;7.03;;;13.10;99.90;;;;;;4961691;28;20179;-87
2021/07/06 02:45:20;;;;;;;8.40;6.45;;;13.00;99.90;;;;;;4957503;28;20097;-88
2021/07/06 02:48:10;;;;;;;8.40;6.13;;;13.00;99.90;;;;;;4973723;28;20551;-88
2021/07/06 02:50:57;;;;;;;7.13;6.43;;;13.00;99.90;;;;;;4973473;28;20055;-86
2021/07/06 02:53:46;;;;;;;9.55;7.50;;;13.10;99.90;;;;;;4977374;28;20538;-89
2021/07/06 02:56:33;;;;;;;14.82;7.80;;;13.00;99.90;;;;;;4985574;28;20070;-88
2021/07/06 02:59:20;;;;;;;10.55;6.85;;;13.10;99.90;;;;;;4984214;28;20061;-88
2021/07/06 03:02:08;;;;;;;9.65;6.70;;;13.10;99.90;;;;;;4979669;28;20074;-87
2021/07/06 03:04:55;;;;;;;8.15;6.85;;;13.20;99.90;;;;;;4973797;28;20717;-87
2021/07/06 03:07:44;;;;;;;7.97;7.07;;;13.20;99.90;;;;;;4981146;28;20122;-88
2021/07/06 03:10:39;;;;;;;10.82;6.70;;;13.20;99.90;;;;;;4972705;28;20472;-88
2021/07/06 03:13:26;;;;;;;8.20;6.72;;;13.10;99.90;;;;;;4986435;28;20046;-87
2021/07/06 03:16:13;;;;;;;12.50;6.70;;;13.00;99.90;;;;;;4973809;28;20356;-89
2021/07/06 03:19:01;;;;;;;9.75;6.13;;;13.00;99.90;;;;;;4972211;28;20472;-88
2021/07/06 03:21:49;;;;;;;10.38;7.00;;;13.00;99.90;;;;;;4971250;28;20137;-88
2021/07/06 03:24:37;;;;;;;10.73;7.03;;;13.10;99.90;;;;;;4974148;28;20094;-87
2021/07/06 03:27:25;;;;;;;9.05;7.32;;;13.10;99.90;;;;;;4963351;28;20568;-87
2021/07/06 03:30:15;;;;;;;10.48;6.40;;;13.10;99.90;;;;;;4966636;28;20266;-89
2021/07/06 03:33:08;;;;;;;7.15;5.90;;;13.10;99.90;;;;;;4973350;28;20055;-88
2021/07/06 03:36:01;;;;;;;7.15;6.07;;;13.10;99.90;;;;;;4965654;28;20058;-87
2021/07/06 03:38:48;;;;;;;12.00;6.47;;;13.00;99.90;;;;;;4973074;28;20147;-87
2021/07/06 03:41:38;;;;;;;8.48;6.35;;;13.00;99.90;;;;;;4958904;28;20114;-87
2021/07/06 03:44:28;;;;;;;9.45;7.20;;;13.00;99.90;;;;;;4969737;28;20158;-87
2021/07/06 03:47:15;;;;;;;13.00;7.72;;;13.00;99.90;;;;;;4971660;28;20706;-88
2021/07/06 03:50:05;;;;;;;12.60;7.10;;;13.00;99.90;;;;;;4953140;28;20049;-87
2021/07/06 03:52:55;;;;;;;9.65;6.53;;;13.10;99.90;;;;;;4985007;28;20050;-88
2021/07/06 03:55:43;;;;;;;11.55;6.88;;;13.10;99.90;;;;;;4973491;28;20049;-88
2021/07/06 03:58:31;;;;;;;10.85;7.68;;;13.10;99.90;;;;;;4973303;28;20050;-87
2021/07/06 04:01:18;;;;;;;8.73;7.05;;;13.10;99.90;;;;;;4971418;28;20122;-87
2021/07/06 04:04:08;;;;;;;11.45;7.40;;;13.10;99.90;;;;;;4971010;28;20043;-87
2021/07/06 04:06:55;;;;;;;10.48;7.70;;;13.20;99.90;;;;;;4971262;28;20127;-88
2021/07/06 04:09:42;;;;;;;9.23;7.03;;;13.20;99.90;;;;;;4971249;28;20043;-88
2021/07/06 04:12:29;;;;;;;10.65;7.32;;;13.20;99.90;;;;;;4961616;28;20073;-88
2021/07/06 04:15:22;;;;;;;10.25;7.43;;;13.30;99.90;;;;;;4973345;28;20201;-87
2021/07/06 04:18:10;;;;;;;9.05;7.18;;;13.40;99.90;;;;;;4967240;28;20043;-87
2021/07/06 04:20:58;;;;;;;11.63;7.13;;;13.50;99.90;;;;;;4969538;28;20129;-89
2021/07/06 04:23:54;;;;;;;13.55;7.18;;;13.60;99.90;;;;;;4967493;28;20125;-88
2021/07/06 04:30:48;;;;;;;8.98;7.55;;;13.80;99.90;;;;;;4957782;28;20444;-89
2021/07/06 04:33:49;;;;;;;11.65;7.93;;;14.00;99.90;;;;;;4953395;28;20054;-89
2021/07/06 04:36:53;;;;;;;8.75;5.80;;;14.10;99.90;;;;;;4969822;28;20380;-87
2021/07/06 04:39:40;;;;;;;6.07;5.45;;;14.20;99.90;;;;;;4972910;28;20125;-89
2021/07/06 04:42:27;;;;;;;5.07;4.55;;;14.30;99.90;;;;;;4973551;28;20125;-88
2021/07/06 04:45:14;;;;;;;6.15;5.55;;;14.50;99.90;;;;;;4960699;28;20039;-87
2021/07/06 04:48:02;;;;;;;7.43;6.32;;;14.60;99.90;;;;;;4967414;28;20477;-88
2021/07/06 04:50:50;;;;;;;8.32;5.45;;;14.90;99.90;;;;;;4970897;28;20118;-88
2021/07/06 04:53:39;;;;;;;5.38;4.35;;;15.10;99.90;;;;;;4967683;28;20107;-91
2021/07/06 04:56:30;;;;;;;6.00;4.25;;;15.30;99.90;;;;;;4970457;28;20137;-88
2021/07/06 04:59:18;;;;;;;5.32;3.65;;;15.50;99.90;;;;;;4968697;28;20778;-87
2021/07/06 05:02:06;;;;;;;4.57;3.38;;;15.60;99.90;;;;;;4969504;28;20070;-90
2021/07/06 05:04:55;;;;;;;5.32;3.38;;;15.80;99.90;;;;;;4975838;28;20049;-89
2021/07/06 05:07:43;;;;;;;6.60;3.05;;;15.90;99.90;;;;;;4972711;28;20122;-88
2021/07/06 05:10:34;;;;;;;5.45;2.90;;;16.00;99.90;;;;;;4967836;28;20066;-88
2021/07/06 05:13:24;;;;;;;6.07;2.75;;;16.10;99.90;;;;;;4968910;28;20061;-89
2021/07/06 05:16:11;;;;;;;3.55;2.60;;;16.00;99.90;;;;;;4969608;28;20145;-90
2021/07/06 05:19:01;;;;;;;5.75;2.42;;;16.00;99.90;;;;;;4951770;28;20058;-90
2021/07/06 05:21:49;;;;;;;3.08;2.50;;;16.00;99.90;;;;;;4972623;28;20126;-89
2021/07/06 05:24:36;;;;;;;5.22;2.50;;;15.90;99.90;;;;;;4970775;28;20074;-88
2021/07/06 05:27:23;;;;;;;4.13;2.63;;;15.90;99.90;;;;;;4985335;28;20101;-88
2021/07/06 05:30:11;;;;;;;2.53;1.90;;;16.00;99.90;;;;;;4957097;28;20057;-89
2021/07/06 05:33:03;;;;;;;4.38;2.25;;;16.00;99.90;;;;;;4965515;28;20051;-89
2021/07/06 05:35:50;;;;;;;6.90;3.10;;;16.20;99.90;;;;;;4984762;28;20206;-89
2021/07/06 05:38:44;;;;;;;6.57;2.97;;;16.30;99.90;;;;;;4966931;28;20034;-89
2021/07/06 05:41:32;;;;;;;2.60;2.40;;;16.40;99.90;;;;;;4966150;28;20130;-88
2021/07/06 05:44:20;;;;;;;2.75;2.17;;;16.50;99.90;;;;;;4971157;28;20075;-89
2021/07/06 05:47:09;;;;;;;3.03;2.17;;;16.80;99.90;;;;;;4964618;28;20432;-90
2021/07/06 05:49:56;;;;;;;11.30;2.97;;;17.10;99.90;;;;;;4970757;28;20091;-89
2021/07/06 05:52:44;;;;;;;11.48;2.53;;;17.40;99.90;;;;;;4962150;28;20079;-90
2021/07/06 05:55:31;;;;;;;2.70;1.85;;;17.60;99.90;;;;;;4968623;28;20046;-91
2021/07/06 05:58:19;;;;;;;3.55;1.88;;;17.70;99.90;;;;;;4974882;28;20046;-92
2021/07/06 06:01:06;;;;;;;3.65;1.85;;;17.90;99.90;;;;;;4969156;28;20038;-92
2021/07/06 06:03:56;;;;;;;5.18;1.95;;;18.10;99.90;;;;;;4966348;28;20057;-93
2021/07/06 06:06:46;;;;;;;3.78;1.73;;;18.30;99.90;;;;;;4972691;28;20046;-91
2021/07/06 06:09:33;;;;;;;4.18;2.47;;;18.60;99.90;;;;;;4973750;28;20046;-92
2021/07/06 06:12:21;;;;;;;1.33;1.00;;;18.90;99.90;;;;;;4967714;28;20110;-87
2021/07/06 06:15:10;;;;;;;5.47;1.50;;;19.30;99.90;;;;;;4970663;28;20379;-88
2021/07/06 06:17:57;;;;;;;4.40;1.40;;;19.80;99.90;;;;;;4970665;28;20582;-91
2021/07/06 06:20:44;;;;;;;1.98;1.23;;;20.10;99.90;;;;;;4980421;28;20118;-89
2021/07/06 06:23:32;;;;;;;3.15;1.83;;;20.10;99.90;;;;;;4957263;28;20101;-90
2021/07/06 06:26:21;;;;;;;3.50;1.08;;;20.40;99.90;;;;;;4967937;28;20119;-90
2021/07/06 06:29:08;;;;;;;2.88;1.30;;;20.50;99.90;;;;;;4982159;28;20430;-89
2021/07/06 06:31:56;;;;;;;5.22;1.10;;;20.90;99.90;;;;;;4969186;28;20054;-90
2021/07/06 06:34:46;;;;;;;5.75;1.27;;;21.20;99.90;;;;;;4967592;28;20416;-90
2021/07/06 06:37:33;;;;;;;3.20;1.40;;;21.30;99.90;;;;;;4959272;28;20054;-90
2021/07/06 06:40:21;;;;;;;9.73;1.42;;;20.90;99.90;;;;;;4971455;28;20499;-91
2021/07/06 06:43:13;;;;;;;1.30;1.20;;;20.90;99.90;;;;;;4967649;28;20058;-90
2021/07/06 06:46:04;;;;;;;;;;;20.90;99.90;;;;;;4976696;28;20126;-90
2021/07/06 06:48:51;;;;;;;3.22;1.00;;;20.90;99.90;;;;;;4985841;28;19933;-90
2021/07/06 06:51:39;;;;;;;1.85;0.98;;;21.10;99.90;;;;;;4975158;28;20043;-92
2021/07/06 06:55:04;;;;;;;1.77;1.02;;;21.20;99.90;;;;;;4967609;28;20043;-90
2021/07/06 06:57:51;;;;;;;4.03;1.10;;;21.30;99.90;;;;;;4969173;28;20043;-91
2021/07/06 07:00:44;;;;;;;1.33;1.20;;;21.50;99.90;;;;;;4973681;28;20099;-91
2021/07/06 07:03:31;;;;;;;3.78;0.93;;;21.80;99.90;;;;;;4970824;28;20147;-91
2021/07/06 07:06:19;;;;;;;10.70;1.23;;;22.00;99.90;;;;;;4973045;28;20047;-90
2021/07/06 07:09:08;;;;;;;1.65;1.10;;;21.80;99.90;;;;;;4972461;28;20380;-91
2021/07/06 07:11:55;;;;;;;1.23;0.90;;;21.60;99.90;;;;;;4967144;28;20109;-92
2021/07/06 07:14:45;;;;;;;3.75;1.08;;;21.70;99.90;;;;;;4981306;28;20088;-91
2021/07/06 07:17:32;;;;;;;2.25;1.05;;;21.90;99.90;;;;;;4975254;28;20133;-91
2021/07/06 07:20:22;;;;;;;3.90;1.02;;;22.40;99.90;;;;;;4977960;28;20046;-91
2021/07/06 07:23:11;;;;;;;2.05;1.15;;;22.40;99.90;;;;;;4984097;28;20065;-88
2021/07/06 07:26:09;;;;;;;4.03;1.00;;;22.30;99.90;;;;;;4984888;28;20411;-91
2021/07/06 07:29:05;;;;;;;1.63;1.00;;;22.60;99.90;;;;;;4960027;28;20332;-91
2021/07/06 07:31:53;;;;;;;2.15;1.08;;;22.50;99.90;;;;;;4969674;28;20051;-90
2021/07/06 07:34:42;;;;;;;1.95;0.88;;;22.40;99.90;;;;;;4963892;28;20330;-89
2021/07/06 07:37:31;;;;;;;3.88;0.95;;;22.80;99.90;;;;;;4969037;28;20091;-90
2021/07/06 07:40:20;;;;;;;3.60;1.27;;;22.90;99.90;;;;;;4966852;28;20070;-89
2021/07/06 07:43:07;;;;;;;1.77;0.95;;;23.50;99.90;;;;;;4969419;28;20096;-90
2021/07/06 07:45:54;;;;;;;3.90;1.17;;;23.90;99.90;;;;;;4970233;28;20070;-90
2021/07/06 07:48:45;;;;;;;2.15;1.10;;;23.90;99.60;;;;;;4970511;28;20129;-90
2021/07/06 07:51:34;;;;;;;1.38;0.90;;;23.60;99.80;;;;;;4970234;28;20138;-87
2021/07/06 07:54:22;;;;;;;6.53;0.90;;;23.60;99.70;;;;;;4958812;28;20056;-89
2021/07/06 07:57:23;;;;;;;2.28;1.20;;;23.40;99.40;;;;;;4960148;28;20042;-89
2021/07/06 08:00:12;;;;;;;2.03;0.90;;;23.20;99.90;;;;;;4972187;28;20043;-90
2021/07/06 08:03:05;;;;;;;1.10;1.00;;;22.90;99.90;;;;;;4970444;28;20126;-91
2021/07/06 08:05:52;;;;;;;2.55;1.00;;;22.70;99.90;;;;;;4973288;28;20132;-90
2021/07/06 08:08:40;;;;;;;2.42;1.05;;;22.60;99.90;;;;;;4972758;28;20487;-90
2021/07/06 08:12:31;;;;;;;;;;;;;;;;;;;;;
2021/07/06 08:15:18;;;;;;;1.15;1.05;;;24.30;99.90;;;;;;4965757;28;30339;-92
2021/07/06 08:18:10;;;;;;;2.92;0.82;;;24.90;98.00;;;;;;4955924;28;20094;-90
2021/07/06 08:20:59;;;;;;;1.35;0.70;;;25.00;98.00;;;;;;4948598;28;20109;-88
2021/07/06 08:23:52;;;;;;;1.75;0.75;;;25.40;95.40;;;;;;4970823;28;20053;-92
2021/07/06 08:26:42;;;;;;;1.83;0.73;;;25.80;93.20;;;;;;4963911;28;20046;-91
2021/07/06 08:30:15;;;;;;;2.65;0.90;;;26.20;92.40;;;;;;4937472;29;20050;-90
2021/07/06 08:33:03;;;;;;;5.55;0.82;;;26.10;91.50;;;;;;4928664;29;20047;-89
2021/07/06 08:35:58;;;;;;;1.98;0.70;;;26.50;91.70;;;;;;4947466;28;20079;-92
2021/07/06 08:38:45;;;;;;;7.10;1.35;;;26.60;89.90;;;;;;4989064;28;20050;-90
2021/07/06 08:41:36;;;;;;;2.92;1.00;;;26.00;86.30;;;;;;4989093;28;20069;-89
2021/07/06 08:44:26;;;;;;;4.50;1.30;;;26.10;86.90;;;;;;4986938;28;20051;-91
2021/07/06 08:47:23;;;;;;;2.92;1.35;;;26.70;90.00;;;;;;4985729;28;20093;-90
2021/07/06 08:50:23;;;;;;;3.97;1.33;;;27.00;87.90;;;;;;5009509;28;20057;-88
2021/07/06 08:53:10;;;;;;;4.03;1.23;;;27.00;87.60;;;;;;5003917;28;20065;-89
2021/07/06 08:55:58;;;;;;;6.18;1.50;;;26.90;85.70;;;;;;4998425;28;20053;-88
2021/07/06 08:58:45;;;;;;;2.42;1.20;;;26.70;82.50;;;;;;5011989;28;20042;-88
2021/07/06 09:01:33;;;;;;;2.70;1.27;;;25.90;85.70;;;;;;5010996;28;20034;-88
2021/07/06 09:04:21;;;;;;;1.92;0.88;;;25.60;90.10;;;;;;5009644;28;20046;-89
2021/07/06 09:07:08;;;;;;;2.88;1.10;;;25.60;89.30;;;;;;5008896;28;20058;-88
2021/07/06 09:10:19;;;;;;;1.85;1.20;;;25.50;90.50;;;;;;5019024;28;20085;-87
2021/07/06 09:13:25;;;;;;;4.60;1.20;;;25.40;90.50;;;;;;4989413;28;20057;-89
2021/07/06 09:16:21;;;;;;;4.35;1.30;;;25.00;92.10;;;;;;5010004;28;20139;-88
2021/07/06 09:19:24;;;;;;;4.35;0.88;;;24.70;93.20;;;;;;5002093;28;20046;-90
2021/07/06 09:22:15;;;;;;;1.52;1.30;;;24.60;93.40;;;;;;5009740;28;20042;-89
2021/07/06 09:25:07;;;;;;;2.45;1.27;;;24.20;94.50;;;;;;5005676;28;20053;-91
2021/07/06 09:27:57;;;;;;;;;;;24.10;95.50;;;;;;5015596;28;20197;-93
2021/07/06 09:30:50;;;;;;;2.90;1.33;;;24.00;97.80;;;;;;4997581;28;19932;-90
2021/07/06 09:33:50;;;;;;;4.90;1.30;;;24.00;97.70;;;;;;4988366;28;20042;-89
2021/07/06 09:36:49;;;;;;;5.82;1.27;;;23.80;98.20;;;;;;4988009;28;20371;-90
2021/07/06 09:39:40;;;;;;;3.58;1.48;;;23.80;99.80;;;;;;5009253;28;20152;-91
2021/07/06 09:42:30;;;;;;;3.13;1.30;;;23.90;99.90;;;;;;5009033;28;20482;-92
2021/07/06 09:46:33;;;;;;;6.05;3.28;;;24.20;99.90;;;;;;5000165;28;20037;-91
2021/07/06 09:49:02;;;;;;;2.05;1.20;;;24.70;99.90;;;;;;4997138;28;20046;-92
2021/07/06 09:52:16;;;;;;;3.83;0.80;;;25.20;97.60;;;;;;5011871;28;20144;-94
2021/07/06 09:55:09;;;;;;;4.45;0.90;;;25.30;96.10;;;;;;5020733;28;20065;-92
2021/07/06 09:58:04;;;;;;;2.10;0.98;;;25.80;97.20;;;;;;5002405;28;20068;-91
2021/07/06 10:01:04;;;;;;;1.85;0.63;;;26.10;93.10;;;;;;4991682;28;20602;-90
2021/07/06 10:03:52;;;;;;;3.33;0.60;;;26.20;92.10;;;;;;4988033;28;20113;-94
2021/07/06 10:06:44;;;;;;;0.40;0.40;;;26.00;91.60;;;;;;5008535;28;20055;-91
2021/07/06 10:09:34;;;;;;;1.38;0.40;;;25.30;93.40;;;;;;4995578;28;20054;-90
2021/07/06 10:16:37;;;;;;;;;;;24.80;94.80;;;;;;4968835;28;20051;-91
2021/07/06 10:19:26;;;;;;;1.02;0.50;;;25.00;96.60;;;;;;4960457;28;19926;-92
2021/07/06 10:22:17;;;;;;;0.60;0.50;;;25.20;95.80;;;;;;4961252;28;20050;-90
2021/07/06 10:25:45;;;;;;;0.50;0.40;;;25.20;95.70;;;;;;4935252;29;20059;-91
2021/07/06 10:28:53;;;;;;;0.30;0.30;;;25.20;96.30;;;;;;4935667;29;20051;-92
2021/07/06 10:31:43;;;;;;;1.58;0.40;;;25.20;94.60;;;;;;4921715;29;20044;-90
2021/07/06 10:35:02;;;;;;;0.30;0.30;;;24.90;98.00;;;;;;4886874;29;20053;-90
2021/07/06 10:38:13;;;;;;;1.33;0.38;;;24.60;98.70;;;;;;4900231;29;20076;-91
2021/07/06 10:49:21;;;;;;;0.50;0.30;;;23.30;99.90;;;;;;4903020;29;20028;-92
2021/07/06 10:52:38;;;;;;;0.30;0.30;;;23.00;99.90;;;;;;4910751;29;20055;-92
2021/07/06 10:56:06;;;;;;;2.08;0.20;;;22.90;99.90;;;;;;4907308;29;20056;-91
2021/07/06 10:59:02;;;;;;;0.10;0.10;;;23.10;99.90;;;;;;4939872;28;20107;-92
2021/07/06 11:06:46;;;;;;;0.32;0.20;;;23.50;99.90;;;;;;4849444;29;20054;-93
2021/07/06 11:10:25;;;;;;;0.20;0.20;;;23.80;99.90;;;;;;4850995;29;20068;-94
2021/07/06 11:30:35;;;;;;;;;;;;;;;;;;;;;
2021/07/06 11:35:17;;;;;;;;;;;;;;;;;;;;;
2021/07/06 11:38:38;;;;;;;0.55;0.30;;;23.60;99.90;;;;;;4733149;30;20041;-95
2021/07/06 12:03:23;;;;;;;0.68;0.30;;;22.50;99.90;;;;;;5124977;27;20405;-91
2021/07/06 12:06:22;;;;;;;1.15;0.50;;;22.40;99.90;;;;;;5106868;27;20039;-90
2021/07/06 12:10:13;;;;;;;0.40;0.40;;;22.70;99.90;;;;;;5056322;28;20045;-92
2021/07/06 12:13:11;;;;;;;0.93;0.30;;;23.00;99.90;;;;;;5050927;28;20045;-92
2021/07/06 12:16:06;;;;;;;0.60;0.55;;;23.30;99.90;;;;;;5050361;28;20187;-93
2021/07/06 12:19:30;;;;;;;;;;;;;;;;;;;;;
2021/07/06 12:27:00;;;;;;;1.50;0.40;;;23.30;99.90;;;;;;5032464;28;20629;-90
2021/07/06 12:34:37;;;;;;;0.47;0.38;;;23.30;99.90;;;;;;4995634;28;20046;-92
2021/07/06 12:38:46;;;;;;;0.80;0.55;;;23.20;99.90;;;;;;5009370;28;20457;-91
2021/07/06 12:41:45;;;;;;;0.77;0.50;;;22.80;99.90;;;;;;5009737;28;20151;-93
2021/07/06 12:44:43;;;;;;;2.05;0.50;;;22.60;99.90;;;;;;5005696;28;20046;-93
2021/07/06 14:27:13;;;;;;;;;;;;;;;;;;;;;
2021/07/06 14:30:48;;;;;;;0.75;0.70;;;21.80;99.90;;;;;;4873216;29;20773;-94
2021/07/06 14:34:03;;;;;;;1.75;1.13;;;21.60;99.90;;;;;;4842164;29;20128;-93
2021/07/06 14:37:20;;;;;;;1.63;1.10;;;21.60;99.90;;;;;;4892561;29;20048;-93
2021/07/06 14:40:10;;;;;;;1.35;1.02;;;21.20;99.90;;;;;;4898061;29;20040;-92
2021/07/06 14:42:58;;;;;;;1.27;1.17;;;21.00;99.90;;;;;;4902506;29;20062;-91
2021/07/06 14:45:59;;;;;;;;;;;;;;;;;;;;;
2021/07/06 14:48:56;;;;;;;1.00;0.90;;;20.90;99.90;;;;;;4895995;29;20088;-94
2021/07/06 14:55:06;;;;;;;2.00;1.10;;;20.70;99.90;;;;;;4897403;29;20412;-93
2021/07/06 14:57:56;;;;;;;1.20;1.10;;;20.50;99.90;;;;;;4885231;29;20055;-91
2021/07/06 15:00:47;;;;;;;4.80;1.98;;;20.40;99.90;;;;;;4896507;29;20057;-91
2021/07/06 15:03:36;;;;;;;2.33;1.63;;;20.30;99.90;;;;;;4900519;29;20053;-92
2021/07/06 15:06:25;;;;;;;4.30;1.83;;;20.20;99.90;;;;;;4899802;29;20214;-92
2021/07/06 15:09:51;;;;;;;3.88;2.50;;;20.20;99.90;;;;;;4895232;29;20063;-94
2021/07/06 15:12:53;;;;;;;;;;;;;;;;;;;;;
2021/07/06 15:16:03;;;;;;;3.78;2.67;;;19.90;99.90;;;;;;4897549;29;20429;-92
2021/07/06 15:19:24;;;;;;;3.90;3.55;;;19.70;99.90;;;;;;4889942;29;20503;-93
2021/07/06 15:22:34;;;;;;;3.97;2.97;;;19.60;99.90;;;;;;4907754;29;20062;-94
2021/07/06 15:25:34;;;;;;;4.63;2.53;;;19.50;99.90;;;;;;4896869;29;20421;-93
2021/07/06 15:29:17;;;;;;;;;;;;;;;;;;;;;
2021/07/06 15:32:30;;;;;;;3.40;2.00;;;19.40;99.90;;;;;;4900508;29;20043;-91
2021/07/06 15:35:47;;;;;;;;;;;;;;;;;;;;;
2021/07/06 15:39:48;;;;;;;2.38;2.17;;;19.30;99.90;;;;;;4820773;29;20050;-92
2021/07/06 15:43:27;;;;;;;2.95;2.20;;;19.10;99.90;;;;;;4800020;29;20054;-92
2021/07/06 15:51:04;;;;;;;2.80;2.60;;;19.00;99.90;;;;;;4822750;29;20030;-94
2021/07/06 15:54:11;;;;;;;5.03;2.95;;;18.90;99.90;;;;;;4860570;29;20060;-94
2021/07/06 15:57:15;;;;;;;3.20;2.80;;;18.90;99.90;;;;;;4903058;29;20048;-91
2021/07/06 16:00:17;;;;;;;;;;;;;;;;;;;;;
2021/07/06 16:07:35;;;;;;;4.32;2.45;;;18.90;99.90;;;;;;4895033;29;20056;-93
2021/07/06 16:10:24;;;;;;;3.10;2.80;;;18.90;99.90;;;;;;4890275;29;20048;-93
2021/07/06 16:13:51;;;;;;;4.50;3.72;;;18.90;99.90;;;;;;4891620;29;20048;-95
2021/07/06 16:16:38;;;;;;;4.45;4.05;;;19.00;99.90;;;;;;4893260;29;20044;-92
2021/07/06 16:19:25;;;;;;;5.13;3.92;;;19.00;99.90;;;;;;4880259;29;20482;-93
2021/07/06 16:22:13;;;;;;;5.38;3.90;;;19.10;99.90;;;;;;4877286;29;20153;-92
2021/07/06 16:25:00;;;;;;;4.88;4.38;;;19.30;99.90;;;;;;4893484;29;20044;-92
2021/07/06 16:27:48;;;;;;;5.40;3.75;;;19.30;99.90;;;;;;4887418;29;20425;-89
2021/07/06 16:30:35;;;;;;;4.25;3.72;;;19.40;99.90;;;;;;4878351;29;20135;-90
2021/07/06 16:33:23;;;;;;;3.70;3.13;;;19.50;99.90;;;;;;4895370;29;20131;-92
2021/07/06 16:36:15;;;;;;;3.15;2.47;;;19.50;99.90;;;;;;4889419;29;20120;-93
2021/07/06 16:39:11;;;;;;;4.90;4.00;;;19.40;99.90;;;;;;4907773;29;20455;-93
2021/07/06 16:41:59;;;;;;;4.63;3.63;;;19.40;99.90;;;;;;4908795;29;20088;-91
2021/07/06 16:44:46;;;;;;;9.40;7.15;;;19.30;99.90;;;;;;4892004;29;20059;-92
2021/07/06 16:47:37;;;;;;;3.85;3.45;;;19.20;99.90;;;;;;4902618;29;20052;-92
2021/07/06 16:50:26;;;;;;;3.45;2.60;;;19.10;99.90;;;;;;4888335;29;20380;-91
2021/07/06 17:59:26;;;;;;;3.95;1.70;;;17.70;99.90;;;;;;4995507;28;20078;-92
2021/07/06 18:05:55;;;;;;;3.95;1.80;;;17.40;99.90;;;;;;5009889;28;20054;-94
2021/07/06 18:08:55;;;;;;;;;;;;;;;;;;;;;
2021/07/06 18:12:22;;;;;;;2.30;1.88;;;17.30;99.90;;;;;;5051077;28;20450;-93
2021/07/06 18:15:10;;;;;;;3.28;2.28;;;17.30;99.90;;;;;;5028972;28;20041;-92
2021/07/06 18:17:57;;;;;;;3.17;2.20;;;17.20;99.90;;;;;;5032060;28;20041;-89
2021/07/06 18:20:59;;;;;;;8.15;2.40;;;17.10;99.90;;;;;;5049515;28;20048;-91
2021/07/06 18:23:50;;;;;;;3.08;2.25;;;17.00;99.90;;;;;;5048032;28;20041;-92
2021/07/06 18:26:37;;;;;;;2.38;1.98;;;16.90;99.90;;;;;;5025369;28;20050;-93
2021/07/06 18:29:24;;;;;;;10.10;2.85;;;16.80;99.90;;;;;;5039082;28;20434;-93
2021/07/06 18:32:14;;;;;;;4.53;2.25;;;16.80;99.90;;;;;;5045555;28;20060;-93
2021/07/06 18:35:05;;;;;;;6.10;2.58;;;16.70;99.90;;;;;;5043183;28;20112;-92
2021/07/06 18:37:54;;;;;;;5.20;3.03;;;16.60;99.90;;;;;;5036672;28;20052;-90
2021/07/06 18:40:50;;;;;;;5.47;3.53;;;16.60;99.90;;;;;;5031633;28;20041;-90
2021/07/06 18:43:37;;;;;;;4.57;3.17;;;16.50;99.90;;;;;;5041321;28;20056;-90
2021/07/06 18:46:30;;;;;;;4.05;3.00;;;16.50;99.90;;;;;;5017893;28;20411;-90
2021/07/06 18:49:17;;;;;;;4.05;3.35;;;16.40;99.90;;;;;;5027556;28;20136;-89
2021/07/06 18:52:09;;;;;;;3.47;2.50;;;16.30;99.90;;;;;;5019908;28;20049;-91
2021/07/06 18:54:57;;;;;;;7.27;3.43;;;16.30;99.90;;;;;;5026195;28;20049;-91
2021/07/06 18:57:44;;;;;;;3.20;2.83;;;16.10;99.90;;;;;;5039238;28;20060;-93
2021/07/06 19:00:33;;;;;;;5.70;3.85;;;16.10;99.90;;;;;;5011457;28;20061;-92
2021/07/06 19:03:20;;;;;;;6.90;3.00;;;16.00;99.90;;;;;;5046245;28;20069;-90
2021/07/06 19:06:12;;;;;;;5.88;2.88;;;15.90;99.90;;;;;;5019634;28;20068;-92
2021/07/06 19:09:54;;;;;;;;;;;;;;;;;;;;;
2021/07/06 19:13:08;;;;;;;9.63;3.53;;;15.80;99.90;;;;;;5029952;28;20044;-90
2021/07/06 19:16:07;;;;;;;4.20;2.90;;;15.80;99.90;;;;;;5024465;28;20074;-91
2021/07/06 19:19:27;;;;;;;;;;;;;;;;;;;;;
2021/07/06 19:22:38;;;;;;;7.50;3.50;;;15.60;99.90;;;;;;5033290;28;20049;-90
2021/07/06 19:31:52;;;;;;;5.72;4.35;;;15.60;99.90;;;;;;5026155;28;20124;-91
2021/07/06 19:39:07;;;;;;;6.63;3.28;;;15.50;99.90;;;;;;4978268;28;20164;-91
2021/07/06 19:42:03;;;;;;;4.40;3.40;;;15.50;99.90;;;;;;5017982;28;20066;-94
2021/07/06 19:44:56;;;;;;;7.07;3.33;;;15.40;99.90;;;;;;5017875;28;20113;-92
2021/07/06 19:47:48;;;;;;;7.70;3.80;;;15.30;99.90;;;;;;5009396;28;20053;-93